KHZX

Isedor Iverson Airport

Mc Gregor, Minnesota, USA
METAR KHZX 110215Z AUTO 00000KT 10SM CLR M06/M07 A2994 RMK AO2
Observed Flight Rules
Dec-11 @ 02:15 UTC (17 minutes ago) Visual Flight Rules
Visibility Clouds
10 miles
  • Clear skies
Temperatures Readings
Current -6°C / 21°F
Dewpoint -7°C / 19°F
Humidity 93%
Altimeter 29.94" Hg
Pressure 1014 hPa
Elevation 374
METAR KHZX 110215Z AUTO 00000KT 10SM CLR M06/M07 A2994 RMK AO2
Observed Flight Rules
Dec-11 @ 02:15 UTC
(17 minutes ago)
VFR
Clouds
  • Clear skies
Temperature Dewpoint
-6°C / 21°F -7°C / 19°F
Humidity Altimeter Pressure
93% 29.94" Hg 1014 hPa